sensor_id;sensor_type;location;lat;lon;timestamp;P1;durP1;ratioP1;P2;durP2;ratioP2
3329;SDS011;1677;49.576;10.990;2022-09-01T00:01:12;4.20;;;3.80;;
3329;SDS011;1677;49.576;10.990;2022-09-01T00:03:44;5.83;;;3.73;;
3329;SDS011;1677;49.576;10.990;2022-09-01T00:06:13;3.70;;;3.40;;
3329;SDS011;1677;49.576;10.990;2022-09-01T00:08:39;4.17;;;3.77;;
3329;SDS011;1677;49.576;10.990;2022-09-01T00:11:05;4.70;;;3.80;;
3329;SDS011;1677;49.576;10.990;2022-09-01T00:13:31;4.30;;;3.90;;
3329;SDS011;1677;49.576;10.990;2022-09-01T00:15:58;5.00;;;3.70;;
3329;SDS011;1677;49.576;10.990;2022-09-01T00:18:24;4.70;;;4.00;;
3329;SDS011;1677;49.576;10.990;2022-09-01T00:20:50;4.20;;;3.80;;
3329;SDS011;1677;49.576;10.990;2022-09-01T00:23:16;3.40;;;3.10;;
3329;SDS011;1677;49.576;10.990;2022-09-01T00:25:41;3.80;;;3.33;;
3329;SDS011;1677;49.576;10.990;2022-09-01T00:28:07;4.83;;;3.97;;
3329;SDS011;1677;49.576;10.990;2022-09-01T00:30:32;3.70;;;3.40;;
3329;SDS011;1677;49.576;10.990;2022-09-01T00:32:58;3.83;;;3.43;;
3329;SDS011;1677;49.576;10.990;2022-09-01T00:35:23;7.47;;;3.73;;
3329;SDS011;1677;49.576;10.990;2022-09-01T00:37:49;5.60;;;4.50;;
3329;SDS011;1677;49.576;10.990;2022-09-01T00:40:15;3.83;;;3.53;;
3329;SDS011;1677;49.576;10.990;2022-09-01T00:42:42;5.23;;;3.97;;
3329;SDS011;1677;49.576;10.990;2022-09-01T00:45:09;3.63;;;3.33;;
3329;SDS011;1677;49.576;10.990;2022-09-01T00:47:35;4.70;;;4.30;;
3329;SDS011;1677;49.576;10.990;2022-09-01T00:50:02;3.70;;;3.40;;
3329;SDS011;1677;49.576;10.990;2022-09-01T00:52:31;4.43;;;4.03;;
3329;SDS011;1677;49.576;10.990;2022-09-01T00:55:22;5.70;;;3.60;;
3329;SDS011;1677;49.576;10.990;2022-09-01T00:57:49;3.87;;;3.50;;
3329;SDS011;1677;49.576;10.990;2022-09-01T01:00:19;5.67;;;5.10;;
3329;SDS011;1677;49.576;10.990;2022-09-01T01:02:50;5.10;;;4.60;;
3329;SDS011;1677;49.576;10.990;2022-09-01T01:05:22;4.63;;;4.30;;
3329;SDS011;1677;49.576;10.990;2022-09-01T01:08:01;5.50;;;4.60;;
3329;SDS011;1677;49.576;10.990;2022-09-01T01:10:29;5.23;;;4.73;;
3329;SDS011;1677;49.576;10.990;2022-09-01T01:12:57;4.30;;;4.00;;
3329;SDS011;1677;49.576;10.990;2022-09-01T01:15:25;4.10;;;3.70;;
3329;SDS011;1677;49.576;10.990;2022-09-01T01:17:52;4.70;;;4.30;;
3329;SDS011;1677;49.576;10.990;2022-09-01T01:20:17;5.30;;;4.80;;
3329;SDS011;1677;49.576;10.990;2022-09-01T01:25:53;5.20;;;4.73;;
3329;SDS011;1677;49.576;10.990;2022-09-01T01:28:32;4.70;;;4.20;;
3329;SDS011;1677;49.576;10.990;2022-09-01T01:31:03;5.03;;;4.57;;
3329;SDS011;1677;49.576;10.990;2022-09-01T01:33:37;5.73;;;4.70;;
3329;SDS011;1677;49.576;10.990;2022-09-01T01:36:06;4.30;;;3.90;;
3329;SDS011;1677;49.576;10.990;2022-09-01T01:38:37;4.80;;;4.10;;
3329;SDS011;1677;49.576;10.990;2022-09-01T01:41:08;4.10;;;3.73;;
3329;SDS011;1677;49.576;10.990;2022-09-01T01:43:34;4.03;;;3.73;;
3329;SDS011;1677;49.576;10.990;2022-09-01T01:46:02;5.80;;;4.83;;
3329;SDS011;1677;49.576;10.990;2022-09-01T01:48:30;4.73;;;4.33;;
3329;SDS011;1677;49.576;10.990;2022-09-01T01:50:59;4.80;;;4.28;;
3329;SDS011;1677;49.576;10.990;2022-09-01T01:53:26;5.30;;;4.90;;
3329;SDS011;1677;49.576;10.990;2022-09-01T01:55:52;5.03;;;4.07;;
3329;SDS011;1677;49.576;10.990;2022-09-01T01:58:20;5.60;;;4.30;;
3329;SDS011;1677;49.576;10.990;2022-09-01T02:00:48;6.60;;;4.80;;
3329;SDS011;1677;49.576;10.990;2022-09-01T02:03:17;4.50;;;4.10;;
3329;SDS011;1677;49.576;10.990;2022-09-01T02:05:46;4.13;;;3.73;;
3329;SDS011;1677;49.576;10.990;2022-09-01T02:08:13;6.73;;;4.00;;
3329;SDS011;1677;49.576;10.990;2022-09-01T02:10:41;4.63;;;4.23;;
3329;SDS011;1677;49.576;10.990;2022-09-01T02:13:10;6.20;;;4.20;;
3329;SDS011;1677;49.576;10.990;2022-09-01T02:15:45;4.43;;;4.03;;
3329;SDS011;1677;49.576;10.990;2022-09-01T02:18:14;3.90;;;3.60;;
3329;SDS011;1677;49.576;10.990;2022-09-01T02:20:44;6.30;;;4.60;;
3329;SDS011;1677;49.576;10.990;2022-09-01T02:23:13;6.20;;;4.87;;
3329;SDS011;1677;49.576;10.990;2022-09-01T02:25:42;4.90;;;4.50;;
3329;SDS011;1677;49.576;10.990;2022-09-01T02:28:10;5.90;;;4.93;;
3329;SDS011;1677;49.576;10.990;2022-09-01T02:30:45;5.13;;;4.53;;
3329;SDS011;1677;49.576;10.990;2022-09-01T02:33:13;5.23;;;4.73;;
3329;SDS011;1677;49.576;10.990;2022-09-01T02:35:43;5.53;;;5.03;;
3329;SDS011;1677;49.576;10.990;2022-09-01T02:38:13;4.63;;;4.17;;
3329;SDS011;1677;49.576;10.990;2022-09-01T02:40:41;4.30;;;3.90;;
3329;SDS011;1677;49.576;10.990;2022-09-01T02:43:09;5.00;;;4.50;;
3329;SDS011;1677;49.576;10.990;2022-09-01T02:45:38;4.77;;;4.30;;
3329;SDS011;1677;49.576;10.990;2022-09-01T02:48:06;4.50;;;3.87;;
3329;SDS011;1677;49.576;10.990;2022-09-01T02:50:35;5.07;;;4.57;;
3329;SDS011;1677;49.576;10.990;2022-09-01T02:53:01;5.30;;;4.50;;
3329;SDS011;1677;49.576;10.990;2022-09-01T02:55:30;4.90;;;4.47;;
3329;SDS011;1677;49.576;10.990;2022-09-01T02:57:56;5.10;;;4.20;;
3329;SDS011;1677;49.576;10.990;2022-09-01T03:00:22;4.40;;;4.10;;
3329;SDS011;1677;49.576;10.990;2022-09-01T03:02:56;5.23;;;4.70;;
3329;SDS011;1677;49.576;10.990;2022-09-01T03:05:25;4.40;;;3.90;;
3329;SDS011;1677;49.576;10.990;2022-09-01T03:07:54;4.70;;;4.30;;
3329;SDS011;1677;49.576;10.990;2022-09-01T03:47:04;4.53;;;4.10;;
3329;SDS011;1677;49.576;10.990;2022-09-01T03:49:34;4.63;;;4.20;;
3329;SDS011;1677;49.576;10.990;2022-09-01T03:52:01;5.37;;;4.87;;
3329;SDS011;1677;49.576;10.990;2022-09-01T03:54:27;5.90;;;5.00;;
3329;SDS011;1677;49.576;10.990;2022-09-01T03:56:54;4.93;;;4.43;;
3329;SDS011;1677;49.576;10.990;2022-09-01T03:59:21;4.70;;;4.20;;
3329;SDS011;1677;49.576;10.990;2022-09-01T04:01:47;5.07;;;4.57;;
3329;SDS011;1677;49.576;10.990;2022-09-01T04:04:13;4.93;;;4.43;;
3329;SDS011;1677;49.576;10.990;2022-09-01T04:06:39;4.90;;;4.40;;
3329;SDS011;1677;49.576;10.990;2022-09-01T04:09:06;5.60;;;4.67;;
3329;SDS011;1677;49.576;10.990;2022-09-01T04:11:32;5.00;;;4.50;;
3329;SDS011;1677;49.576;10.990;2022-09-01T04:13:59;5.20;;;4.80;;
3329;SDS011;1677;49.576;10.990;2022-09-01T04:16:26;8.33;;;5.20;;
3329;SDS011;1677;49.576;10.990;2022-09-01T04:19:16;5.37;;;4.87;;
3329;SDS011;1677;49.576;10.990;2022-09-01T04:21:50;5.23;;;4.73;;
3329;SDS011;1677;49.576;10.990;2022-09-01T04:24:18;5.27;;;4.77;;
3329;SDS011;1677;49.576;10.990;2022-09-01T04:26:47;6.20;;;4.53;;
3329;SDS011;1677;49.576;10.990;2022-09-01T04:29:14;4.50;;;4.10;;
3329;SDS011;1677;49.576;10.990;2022-09-01T04:31:48;5.10;;;4.60;;
3329;SDS011;1677;49.576;10.990;2022-09-01T04:34:17;5.17;;;4.67;;
3329;SDS011;1677;49.576;10.990;2022-09-01T04:36:43;6.07;;;5.40;;
3329;SDS011;1677;49.576;10.990;2022-09-01T04:39:10;5.87;;;5.30;;
3329;SDS011;1677;49.576;10.990;2022-09-01T04:41:38;6.60;;;5.23;;
3329;SDS011;1677;49.576;10.990;2022-09-01T04:44:06;4.90;;;4.50;;
3329;SDS011;1677;49.576;10.990;2022-09-01T04:46:34;5.43;;;4.83;;
3329;SDS011;1677;49.576;10.990;2022-09-01T04:49:05;5.23;;;4.67;;
3329;SDS011;1677;49.576;10.990;2022-09-01T04:51:34;5.30;;;4.90;;
3329;SDS011;1677;49.576;10.990;2022-09-01T04:54:05;5.17;;;4.77;;
3329;SDS011;1677;49.576;10.990;2022-09-01T04:56:35;5.13;;;4.33;;
3329;SDS011;1677;49.576;10.990;2022-09-01T04:59:01;5.17;;;4.77;;
3329;SDS011;1677;49.576;10.990;2022-09-01T05:01:31;8.00;;;4.87;;
3329;SDS011;1677;49.576;10.990;2022-09-01T05:04:07;4.30;;;3.90;;
3329;SDS011;1677;49.576;10.990;2022-09-01T05:06:59;4.43;;;4.13;;
3329;SDS011;1677;49.576;10.990;2022-09-01T05:09:32;5.27;;;4.83;;
3329;SDS011;1677;49.576;10.990;2022-09-01T05:11:59;5.77;;;5.27;;
3329;SDS011;1677;49.576;10.990;2022-09-01T05:14:42;6.40;;;5.10;;
3329;SDS011;1677;49.576;10.990;2022-09-01T05:17:12;4.60;;;4.20;;
3329;SDS011;1677;49.576;10.990;2022-09-01T05:19:39;5.03;;;4.53;;
3329;SDS011;1677;49.576;10.990;2022-09-01T05:22:07;5.10;;;4.70;;
3329;SDS011;1677;49.576;10.990;2022-09-01T05:24:34;5.57;;;4.45;;
3329;SDS011;1677;49.576;10.990;2022-09-01T05:27:03;4.10;;;3.80;;
3329;SDS011;1677;49.576;10.990;2022-09-01T05:29:29;6.80;;;5.00;;
3329;SDS011;1677;49.576;10.990;2022-09-01T05:31:55;4.97;;;4.57;;
3329;SDS011;1677;49.576;10.990;2022-09-01T05:34:22;4.20;;;3.90;;
3329;SDS011;1677;49.576;10.990;2022-09-01T05:36:54;5.83;;;5.23;;
3329;SDS011;1677;49.576;10.990;2022-09-01T05:39:24;4.67;;;4.27;;
3329;SDS011;1677;49.576;10.990;2022-09-01T05:41:51;4.80;;;4.40;;
3329;SDS011;1677;49.576;10.990;2022-09-01T05:44:18;6.23;;;5.23;;
3329;SDS011;1677;49.576;10.990;2022-09-01T05:46:46;5.40;;;4.90;;
3329;SDS011;1677;49.576;10.990;2022-09-01T05:49:13;6.70;;;4.47;;
3329;SDS011;1677;49.576;10.990;2022-09-01T05:51:44;5.20;;;4.70;;
3329;SDS011;1677;49.576;10.990;2022-09-01T05:54:13;6.23;;;5.10;;
3329;SDS011;1677;49.576;10.990;2022-09-01T05:56:45;6.77;;;4.87;;
3329;SDS011;1677;49.576;10.990;2022-09-01T05:59:11;5.80;;;4.33;;
3329;SDS011;1677;49.576;10.990;2022-09-01T06:01:39;5.90;;;4.77;;
3329;SDS011;1677;49.576;10.990;2022-09-01T06:04:05;6.90;;;5.43;;
3329;SDS011;1677;49.576;10.990;2022-09-01T06:06:35;5.67;;;4.60;;
3329;SDS011;1677;49.576;10.990;2022-09-01T06:09:05;5.77;;;4.73;;
3329;SDS011;1677;49.576;10.990;2022-09-01T06:11:32;4.77;;;4.10;;
3329;SDS011;1677;49.576;10.990;2022-09-01T06:14:01;4.00;;;3.70;;
3329;SDS011;1677;49.576;10.990;2022-09-01T06:16:28;5.73;;;3.80;;
3329;SDS011;1677;49.576;10.990;2022-09-01T06:18:55;5.20;;;3.60;;
3329;SDS011;1677;49.576;10.990;2022-09-01T06:21:24;4.03;;;3.63;;
3329;SDS011;1677;49.576;10.990;2022-09-01T06:23:52;7.07;;;3.97;;
3329;SDS011;1677;49.576;10.990;2022-09-01T06:26:21;3.50;;;3.20;;
3329;SDS011;1677;49.576;10.990;2022-09-01T06:28:51;4.57;;;3.40;;
3329;SDS011;1677;49.576;10.990;2022-09-01T06:31:19;4.83;;;4.13;;
3329;SDS011;1677;49.576;10.990;2022-09-01T06:33:50;5.57;;;2.80;;
3329;SDS011;1677;49.576;10.990;2022-09-01T06:36:18;3.93;;;3.60;;
3329;SDS011;1677;49.576;10.990;2022-09-01T06:38:46;3.23;;;3.03;;
3329;SDS011;1677;49.576;10.990;2022-09-01T06:41:12;3.33;;;3.00;;
3329;SDS011;1677;49.576;10.990;2022-09-01T06:43:38;4.30;;;3.40;;
3329;SDS011;1677;49.576;10.990;2022-09-01T06:46:06;3.70;;;3.40;;
3329;SDS011;1677;49.576;10.990;2022-09-01T06:48:32;3.70;;;3.40;;
3329;SDS011;1677;49.576;10.990;2022-09-01T06:50:58;3.87;;;3.50;;
3329;SDS011;1677;49.576;10.990;2022-09-01T06:53:27;3.83;;;3.10;;
3329;SDS011;1677;49.576;10.990;2022-09-01T06:55:55;4.27;;;3.90;;
3329;SDS011;1677;49.576;10.990;2022-09-01T06:58:22;6.83;;;3.90;;
3329;SDS011;1677;49.576;10.990;2022-09-01T07:00:49;3.10;;;2.80;;
3329;SDS011;1677;49.576;10.990;2022-09-01T07:03:15;4.30;;;3.90;;
3329;SDS011;1677;49.576;10.990;2022-09-01T07:05:42;4.03;;;3.20;;
3329;SDS011;1677;49.576;10.990;2022-09-01T07:08:10;3.90;;;3.10;;
3329;SDS011;1677;49.576;10.990;2022-09-01T07:10:48;3.33;;;3.03;;
3329;SDS011;1677;49.576;10.990;2022-09-01T07:13:19;4.40;;;3.10;;
3329;SDS011;1677;49.576;10.990;2022-09-01T07:15:50;3.40;;;3.08;;
3329;SDS011;1677;49.576;10.990;2022-09-01T07:18:18;3.70;;;3.07;;
3329;SDS011;1677;49.576;10.990;2022-09-01T07:20:46;3.23;;;2.93;;
3329;SDS011;1677;49.576;10.990;2022-09-01T07:23:13;3.87;;;3.33;;
3329;SDS011;1677;49.576;10.990;2022-09-01T07:25:41;3.83;;;3.43;;
3329;SDS011;1677;49.576;10.990;2022-09-01T07:28:08;5.43;;;3.93;;
3329;SDS011;1677;49.576;10.990;2022-09-01T07:30:43;3.50;;;3.20;;
3329;SDS011;1677;49.576;10.990;2022-09-01T07:33:12;3.53;;;3.23;;
3329;SDS011;1677;49.576;10.990;2022-09-01T07:35:40;3.67;;;3.37;;
3329;SDS011;1677;49.576;10.990;2022-09-01T07:38:07;2.87;;;2.67;;
3329;SDS011;1677;49.576;10.990;2022-09-01T07:40:36;3.90;;;3.40;;
3329;SDS011;1677;49.576;10.990;2022-09-01T07:43:08;3.40;;;3.10;;
3329;SDS011;1677;49.576;10.990;2022-09-01T07:45:49;5.50;;;3.67;;
3329;SDS011;1677;49.576;10.990;2022-09-01T07:48:19;7.20;;;3.30;;
3329;SDS011;1677;49.576;10.990;2022-09-01T07:50:46;3.77;;;3.43;;
3329;SDS011;1677;49.576;10.990;2022-09-01T07:53:25;3.60;;;3.00;;
3329;SDS011;1677;49.576;10.990;2022-09-01T07:55:55;3.70;;;3.40;;
3329;SDS011;1677;49.576;10.990;2022-09-01T07:58:24;4.03;;;2.53;;
3329;SDS011;1677;49.576;10.990;2022-09-01T08:00:51;3.80;;;3.17;;
3329;SDS011;1677;49.576;10.990;2022-09-01T08:03:19;2.87;;;2.67;;
3329;SDS011;1677;49.576;10.990;2022-09-01T08:05:47;3.50;;;3.20;;
3329;SDS011;1677;49.576;10.990;2022-09-01T08:08:17;3.83;;;2.70;;
3329;SDS011;1677;49.576;10.990;2022-09-01T08:10:44;3.22;;;2.67;;
3329;SDS011;1677;49.576;10.990;2022-09-01T08:13:11;5.97;;;3.07;;
3329;SDS011;1677;49.576;10.990;2022-09-01T08:15:38;2.57;;;2.37;;
3329;SDS011;1677;49.576;10.990;2022-09-01T08:18:04;4.90;;;3.00;;
3329;SDS011;1677;49.576;10.990;2022-09-01T08:20:31;3.77;;;2.97;;
3329;SDS011;1677;49.576;10.990;2022-09-01T08:23:01;3.03;;;2.67;;
3329;SDS011;1677;49.576;10.990;2022-09-01T08:25:28;3.20;;;2.90;;
3329;SDS011;1677;49.576;10.990;2022-09-01T08:27:54;3.33;;;3.13;;
3329;SDS011;1677;49.576;10.990;2022-09-01T08:30:20;2.50;;;2.30;;
3329;SDS011;1677;49.576;10.990;2022-09-01T08:32:46;3.30;;;3.00;;
3329;SDS011;1677;49.576;10.990;2022-09-01T08:35:12;2.67;;;2.47;;
3329;SDS011;1677;49.576;10.990;2022-09-01T08:37:40;5.93;;;3.00;;
3329;SDS011;1677;49.576;10.990;2022-09-01T08:40:06;3.37;;;3.07;;
3329;SDS011;1677;49.576;10.990;2022-09-01T08:42:42;3.67;;;2.73;;
3329;SDS011;1677;49.576;10.990;2022-09-01T08:45:26;3.50;;;2.70;;
3329;SDS011;1677;49.576;10.990;2022-09-01T08:47:56;3.40;;;3.20;;
3329;SDS011;1677;49.576;10.990;2022-09-01T08:50:26;3.25;;;2.67;;
3329;SDS011;1677;49.576;10.990;2022-09-01T08:53:01;3.03;;;2.23;;
3329;SDS011;1677;49.576;10.990;2022-09-01T08:55:46;3.37;;;2.50;;
3329;SDS011;1677;49.576;10.990;2022-09-01T08:58:16;3.20;;;2.50;;
3329;SDS011;1677;49.576;10.990;2022-09-01T09:00:44;6.03;;;2.70;;
3329;SDS011;1677;49.576;10.990;2022-09-01T09:03:35;4.10;;;2.73;;
3329;SDS011;1677;49.576;10.990;2022-09-01T09:09:06;2.83;;;2.10;;
3329;SDS011;1677;49.576;10.990;2022-09-01T09:16:54;3.83;;;2.00;;
3329;SDS011;1677;49.576;10.990;2022-09-01T09:19:38;2.70;;;2.40;;
3329;SDS011;1677;49.576;10.990;2022-09-01T09:22:13;2.73;;;2.53;;
3329;SDS011;1677;49.576;10.990;2022-09-01T09:27:27;5.90;;;3.13;;
3329;SDS011;1677;49.576;10.990;2022-09-01T09:30:05;3.90;;;2.63;;
3329;SDS011;1677;49.576;10.990;2022-09-01T09:32:44;3.77;;;1.97;;
3329;SDS011;1677;49.576;10.990;2022-09-01T09:37:50;4.90;;;1.97;;
3329;SDS011;1677;49.576;10.990;2022-09-01T09:40:17;2.20;;;2.00;;
3329;SDS011;1677;49.576;10.990;2022-09-01T09:45:30;2.23;;;2.03;;
3329;SDS011;1677;49.576;10.990;2022-09-01T09:48:04;2.23;;;2.03;;
3329;SDS011;1677;49.576;10.990;2022-09-01T09:50:39;2.30;;;2.10;;
3329;SDS011;1677;49.576;10.990;2022-09-01T09:53:11;2.30;;;2.10;;
3329;SDS011;1677;49.576;10.990;2022-09-01T09:55:56;2.63;;;2.43;;
3329;SDS011;1677;49.576;10.990;2022-09-01T09:58:25;2.47;;;2.00;;
3329;SDS011;1677;49.576;10.990;2022-09-01T10:00:59;3.70;;;2.30;;
3329;SDS011;1677;49.576;10.990;2022-09-01T10:03:34;3.10;;;2.27;;
3329;SDS011;1677;49.576;10.990;2022-09-01T10:06:08;2.70;;;2.50;;
3329;SDS011;1677;49.576;10.990;2022-09-01T10:08:37;2.13;;;2.00;;
3329;SDS011;1677;49.576;10.990;2022-09-01T10:11:09;2.57;;;2.10;;
3329;SDS011;1677;49.576;10.990;2022-09-01T10:13:37;2.73;;;2.50;;
3329;SDS011;1677;49.576;10.990;2022-09-01T10:16:07;2.10;;;1.87;;
3329;SDS011;1677;49.576;10.990;2022-09-01T10:18:43;2.40;;;2.20;;
3329;SDS011;1677;49.576;10.990;2022-09-01T10:21:13;2.33;;;2.13;;
3329;SDS011;1677;49.576;10.990;2022-09-01T10:23:41;2.30;;;2.10;;
3329;SDS011;1677;49.576;10.990;2022-09-01T10:26:14;2.60;;;2.40;;
3329;SDS011;1677;49.576;10.990;2022-09-01T10:28:46;3.33;;;2.50;;
3329;SDS011;1677;49.576;10.990;2022-09-01T10:31:21;3.30;;;2.10;;
3329;SDS011;1677;49.576;10.990;2022-09-01T10:33:48;4.03;;;2.47;;
3329;SDS011;1677;49.576;10.990;2022-09-01T10:36:14;3.20;;;2.93;;
3329;SDS011;1677;49.576;10.990;2022-09-01T10:38:41;2.73;;;2.40;;
3329;SDS011;1677;49.576;10.990;2022-09-01T10:41:08;3.07;;;2.43;;
3329;SDS011;1677;49.576;10.990;2022-09-01T10:43:47;2.50;;;2.30;;
3329;SDS011;1677;49.576;10.990;2022-09-01T10:46:40;2.30;;;2.10;;
3329;SDS011;1677;49.576;10.990;2022-09-01T10:49:02;2.70;;;2.50;;
3329;SDS011;1677;49.576;10.990;2022-09-01T10:51:52;3.40;;;2.23;;
3329;SDS011;1677;49.576;10.990;2022-09-01T10:57:08;3.93;;;2.20;;
3329;SDS011;1677;49.576;10.990;2022-09-01T11:00:13;2.57;;;2.17;;
3329;SDS011;1677;49.576;10.990;2022-09-01T11:08:20;2.67;;;2.30;;
3329;SDS011;1677;49.576;10.990;2022-09-01T11:10:53;2.30;;;2.10;;
3329;SDS011;1677;49.576;10.990;2022-09-01T11:16:26;2.47;;;2.27;;
3329;SDS011;1677;49.576;10.990;2022-09-01T11:21:45;3.00;;;2.80;;
3329;SDS011;1677;49.576;10.990;2022-09-01T11:27:02;2.43;;;2.23;;
3329;SDS011;1677;49.576;10.990;2022-09-01T11:32:18;2.83;;;2.63;;
3329;SDS011;1677;49.576;10.990;2022-09-01T11:34:49;2.70;;;2.20;;
3329;SDS011;1677;49.576;10.990;2022-09-01T11:37:18;3.37;;;3.07;;
3329;SDS011;1677;49.576;10.990;2022-09-01T11:39:50;3.63;;;3.07;;
3329;SDS011;1677;49.576;10.990;2022-09-01T11:42:30;2.83;;;2.63;;
3329;SDS011;1677;49.576;10.990;2022-09-01T11:45:19;2.90;;;2.70;;
3329;SDS011;1677;49.576;10.990;2022-09-01T11:47:53;2.80;;;2.53;;
3329;SDS011;1677;49.576;10.990;2022-09-01T11:50:24;2.70;;;2.40;;
3329;SDS011;1677;49.576;10.990;2022-09-01T11:52:59;3.30;;;2.60;;
3329;SDS011;1677;49.576;10.990;2022-09-01T11:55:41;4.23;;;3.00;;
3329;SDS011;1677;49.576;10.990;2022-09-01T11:58:10;2.97;;;2.73;;
3329;SDS011;1677;49.576;10.990;2022-09-01T12:00:53;4.03;;;2.60;;
3329;SDS011;1677;49.576;10.990;2022-09-01T12:05:48;3.20;;;2.97;;
3329;SDS011;1677;49.576;10.990;2022-09-01T12:08:23;3.70;;;2.50;;
3329;SDS011;1677;49.576;10.990;2022-09-01T12:10:59;2.77;;;2.57;;
3329;SDS011;1677;49.576;10.990;2022-09-01T12:13:31;2.80;;;2.47;;
3329;SDS011;1677;49.576;10.990;2022-09-01T12:16:01;3.77;;;3.00;;
3329;SDS011;1677;49.576;10.990;2022-09-01T12:18:30;3.70;;;3.03;;
3329;SDS011;1677;49.576;10.990;2022-09-01T12:21:00;2.70;;;2.50;;
3329;SDS011;1677;49.576;10.990;2022-09-01T12:23:29;3.57;;;2.70;;
3329;SDS011;1677;49.576;10.990;2022-09-01T12:25:57;3.00;;;2.70;;
3329;SDS011;1677;49.576;10.990;2022-09-01T12:28:32;4.30;;;2.67;;
3329;SDS011;1677;49.576;10.990;2022-09-01T12:31:00;3.27;;;2.97;;
3329;SDS011;1677;49.576;10.990;2022-09-01T12:33:29;3.67;;;3.10;;
3329;SDS011;1677;49.576;10.990;2022-09-01T12:38:56;4.53;;;2.97;;
3329;SDS011;1677;49.576;10.990;2022-09-01T12:41:42;2.87;;;2.67;;
3329;SDS011;1677;49.576;10.990;2022-09-01T12:47:03;3.67;;;2.50;;
3329;SDS011;1677;49.576;10.990;2022-09-01T12:49:44;2.87;;;2.67;;
3329;SDS011;1677;49.576;10.990;2022-09-01T12:55:13;2.77;;;2.57;;
3329;SDS011;1677;49.576;10.990;2022-09-01T12:57:39;3.23;;;2.93;;
3329;SDS011;1677;49.576;10.990;2022-09-01T13:05:39;3.10;;;2.80;;
3329;SDS011;1677;49.576;10.990;2022-09-01T13:08:32;3.27;;;3.00;;
3329;SDS011;1677;49.576;10.990;2022-09-01T13:13:26;3.50;;;3.20;;
3329;SDS011;1677;49.576;10.990;2022-09-01T13:15:54;3.33;;;3.03;;
3329;SDS011;1677;49.576;10.990;2022-09-01T13:18:24;3.10;;;2.80;;
3329;SDS011;1677;49.576;10.990;2022-09-01T13:20:50;3.03;;;2.73;;
3329;SDS011;1677;49.576;10.990;2022-09-01T13:23:17;3.50;;;2.43;;
3329;SDS011;1677;49.576;10.990;2022-09-01T13:25:43;3.20;;;3.00;;
3329;SDS011;1677;49.576;10.990;2022-09-01T13:28:10;3.80;;;2.80;;
3329;SDS011;1677;49.576;10.990;2022-09-01T13:30:36;3.47;;;2.77;;
3329;SDS011;1677;49.576;10.990;2022-09-01T13:33:03;3.20;;;2.60;;
3329;SDS011;1677;49.576;10.990;2022-09-01T13:35:28;3.07;;;2.87;;
3329;SDS011;1677;49.576;10.990;2022-09-01T13:37:54;2.70;;;2.50;;
3329;SDS011;1677;49.576;10.990;2022-09-01T13:40:20;4.40;;;2.57;;
3329;SDS011;1677;49.576;10.990;2022-09-01T13:42:48;4.50;;;2.97;;
3329;SDS011;1677;49.576;10.990;2022-09-01T13:45:15;2.90;;;2.70;;
3329;SDS011;1677;49.576;10.990;2022-09-01T13:47:42;3.53;;;3.23;;
3329;SDS011;1677;49.576;10.990;2022-09-01T13:50:10;4.37;;;2.77;;
3329;SDS011;1677;49.576;10.990;2022-09-01T13:52:38;2.40;;;2.20;;
3329;SDS011;1677;49.576;10.990;2022-09-01T13:55:06;2.60;;;2.40;;
3329;SDS011;1677;49.576;10.990;2022-09-01T13:57:33;2.40;;;2.20;;
3329;SDS011;1677;49.576;10.990;2022-09-01T13:59:59;2.80;;;2.60;;
3329;SDS011;1677;49.576;10.990;2022-09-01T14:02:24;3.00;;;2.80;;
3329;SDS011;1677;49.576;10.990;2022-09-01T14:04:50;3.03;;;2.78;;
3329;SDS011;1677;49.576;10.990;2022-09-01T14:07:16;3.60;;;2.53;;
3329;SDS011;1677;49.576;10.990;2022-09-01T14:09:43;2.80;;;2.50;;
3329;SDS011;1677;49.576;10.990;2022-09-01T14:12:09;2.67;;;2.47;;
3329;SDS011;1677;49.576;10.990;2022-09-01T14:14:34;2.93;;;2.40;;
3329;SDS011;1677;49.576;10.990;2022-09-01T14:17:00;2.10;;;2.00;;
3329;SDS011;1677;49.576;10.990;2022-09-01T14:19:26;2.10;;;1.90;;
3329;SDS011;1677;49.576;10.990;2022-09-01T14:21:53;2.00;;;1.80;;
3329;SDS011;1677;49.576;10.990;2022-09-01T14:24:19;2.90;;;2.00;;
3329;SDS011;1677;49.576;10.990;2022-09-01T14:26:45;3.03;;;2.47;;
3329;SDS011;1677;49.576;10.990;2022-09-01T14:29:11;2.37;;;2.17;;
3329;SDS011;1677;49.576;10.990;2022-09-01T14:31:37;2.43;;;2.23;;
3329;SDS011;1677;49.576;10.990;2022-09-01T14:34:03;2.70;;;2.50;;
3329;SDS011;1677;49.576;10.990;2022-09-01T14:36:30;2.83;;;2.63;;
3329;SDS011;1677;49.576;10.990;2022-09-01T14:38:56;2.60;;;2.27;;
3329;SDS011;1677;49.576;10.990;2022-09-01T14:41:22;2.93;;;2.57;;
3329;SDS011;1677;49.576;10.990;2022-09-01T14:43:49;3.37;;;2.33;;
3329;SDS011;1677;49.576;10.990;2022-09-01T14:46:16;3.00;;;2.80;;
3329;SDS011;1677;49.576;10.990;2022-09-01T14:48:43;2.90;;;2.17;;
3329;SDS011;1677;49.576;10.990;2022-09-01T14:51:17;2.60;;;2.23;;
3329;SDS011;1677;49.576;10.990;2022-09-01T14:53:46;2.80;;;2.40;;
3329;SDS011;1677;49.576;10.990;2022-09-01T14:56:12;3.30;;;2.53;;
3329;SDS011;1677;49.576;10.990;2022-09-01T14:58:42;3.00;;;2.70;;
3329;SDS011;1677;49.576;10.990;2022-09-01T15:01:09;3.07;;;2.87;;
3329;SDS011;1677;49.576;10.990;2022-09-01T15:03:36;3.60;;;3.17;;
3329;SDS011;1677;49.576;10.990;2022-09-01T15:06:02;3.73;;;2.80;;
3329;SDS011;1677;49.576;10.990;2022-09-01T15:08:27;3.03;;;2.70;;
3329;SDS011;1677;49.576;10.990;2022-09-01T15:10:53;3.63;;;3.27;;
3329;SDS011;1677;49.576;10.990;2022-09-01T15:13:19;6.50;;;3.50;;
3329;SDS011;1677;49.576;10.990;2022-09-01T15:15:44;3.53;;;3.23;;
3329;SDS011;1677;49.576;10.990;2022-09-01T15:18:10;3.17;;;2.73;;
3329;SDS011;1677;49.576;10.990;2022-09-01T15:20:40;2.70;;;2.50;;
3329;SDS011;1677;49.576;10.990;2022-09-01T15:23:09;3.47;;;3.17;;
3329;SDS011;1677;49.576;10.990;2022-09-01T15:25:36;2.95;;;2.60;;
3329;SDS011;1677;49.576;10.990;2022-09-01T15:28:02;2.80;;;2.60;;
3329;SDS011;1677;49.576;10.990;2022-09-01T15:30:28;5.70;;;2.50;;
3329;SDS011;1677;49.576;10.990;2022-09-01T15:32:54;4.97;;;2.40;;
3329;SDS011;1677;49.576;10.990;2022-09-01T15:35:20;2.83;;;2.63;;
3329;SDS011;1677;49.576;10.990;2022-09-01T15:37:46;2.73;;;2.53;;
3329;SDS011;1677;49.576;10.990;2022-09-01T15:40:13;5.10;;;3.37;;
3329;SDS011;1677;49.576;10.990;2022-09-01T15:42:40;2.77;;;2.57;;
3329;SDS011;1677;49.576;10.990;2022-09-01T15:45:07;3.73;;;2.57;;
3329;SDS011;1677;49.576;10.990;2022-09-01T15:47:35;4.77;;;3.20;;
3329;SDS011;1677;49.576;10.990;2022-09-01T15:50:05;3.27;;;2.97;;
3329;SDS011;1677;49.576;10.990;2022-09-01T15:52:33;2.33;;;2.13;;
3329;SDS011;1677;49.576;10.990;2022-09-01T15:54:59;2.50;;;2.30;;
3329;SDS011;1677;49.576;10.990;2022-09-01T15:57:26;4.63;;;2.43;;
3329;SDS011;1677;49.576;10.990;2022-09-01T15:59:51;2.70;;;2.50;;
3329;SDS011;1677;49.576;10.990;2022-09-01T16:02:17;3.50;;;3.17;;
3329;SDS011;1677;49.576;10.990;2022-09-01T16:04:45;2.83;;;2.63;;
3329;SDS011;1677;49.576;10.990;2022-09-01T16:07:11;2.90;;;2.70;;
3329;SDS011;1677;49.576;10.990;2022-09-01T16:09:37;2.40;;;2.20;;
3329;SDS011;1677;49.576;10.990;2022-09-01T16:12:03;2.57;;;2.37;;
3329;SDS011;1677;49.576;10.990;2022-09-01T16:14:30;2.50;;;2.30;;
3329;SDS011;1677;49.576;10.990;2022-09-01T16:22:18;2.60;;;2.27;;
3329;SDS011;1677;49.576;10.990;2022-09-01T16:25:30;2.30;;;2.10;;
3329;SDS011;1677;49.576;10.990;2022-09-01T16:28:00;2.70;;;2.50;;
3329;SDS011;1677;49.576;10.990;2022-09-01T16:30:31;2.60;;;2.40;;
3329;SDS011;1677;49.576;10.990;2022-09-01T16:32:58;2.93;;;2.63;;
3329;SDS011;1677;49.576;10.990;2022-09-01T16:35:43;2.57;;;2.20;;
3329;SDS011;1677;49.576;10.990;2022-09-01T16:44:14;2.97;;;2.40;;
3329;SDS011;1677;49.576;10.990;2022-09-01T16:46:53;2.57;;;2.37;;
3329;SDS011;1677;49.576;10.990;2022-09-01T16:49:43;3.40;;;2.40;;
3329;SDS011;1677;49.576;10.990;2022-09-01T16:57:25;2.60;;;2.40;;
3329;SDS011;1677;49.576;10.990;2022-09-01T16:59:59;7.63;;;3.20;;
3329;SDS011;1677;49.576;10.990;2022-09-01T17:02:32;6.07;;;3.50;;
3329;SDS011;1677;49.576;10.990;2022-09-01T17:05:22;4.03;;;2.33;;
3329;SDS011;1677;49.576;10.990;2022-09-01T17:10:50;2.50;;;2.30;;